DAUZ

Details ICAO DAUZ (IAM)
Name IN AMENAS
Region Algeria
Timezone Africa/Algiers (UTC+1.0)
Plans Departing 16
Arriving 26
Stats Elevation 1,847 ft / 563 m (AMSL)
Location 28.057591° 9.640928°
Runways 2
Magnetic Variation 1.788° E
Sunrise 2018-05-25 04:28:37 UTC / 2018-05-25 05:28:37 Local
Sunset 2018-05-25 18:11:00 UTC / 2018-05-25 19:11:00 Local
Advertisement - Login to hide

Runways

ID Width Length Bearing (true) Bearing (mag) Surface Threshold Offset Overrun Length
05 148 ft / 45 m 9,854 ft / 3,004 m 46.75° 44.96° Asphalt 0 ft / 0 m 0 ft / 0 m
15 98 ft / 30 m 7,240 ft / 2,207 m 145.27° 143.48° Asphalt 0 ft / 0 m 0 ft / 0 m
23 148 ft / 45 m 9,854 ft / 3,004 m 226.76° 224.97° Asphalt 0 ft / 0 m 0 ft / 0 m
33 98 ft / 30 m 7,240 ft / 2,207 m 325.28° 323.49° Asphalt 0 ft / 0 m 148 ft / 45 m

Map

Weather


0- 5 10 15 20 25 30 35+ Temperature / ° C

Clouds and Precipitation
Forecast for 2018-05-25 12:00 UTC. Updated 2 hours ago

Ground ~20,000 ft ~40,000 ft Winds

METAR

DAUZ 251300Z 26005KT 230V300 8000 NSC 40/M02 Q1012

TAF

TAF DAUZ 251100Z 2512/2612 06008KT 8000 NSC PROB30 2512/2518 4000 HZ BECMG 2515/2518 34010KT PROB30 TEMPO 2517/2521 FEW040CB BECMG 2523/2602 VRB02KT

Frequencies

Tower 119.70 MHz TWR
Tower 118.70 MHz TWR
Warning: Do not use this data for real-world aviation or navigation. No guarantee of current accuracy is given.